Home   Weather   USA   Downey   Past weeks
Flag for USA

Past Weather in Downey, California, USA — Yesterday and Last 2 Weeks

Currently: 59 °F. Mostly cloudy. (Weather station: Long Beach Airport, USA). See more current weather

Past Weather in Downey — Graph

°F

Downey Temperature Yesterday

Maximum temperature yesterday: 66 °F (at 1:53 pm)
Minimum temperature yesterday: 57 °F (at 3:53 am)
Average temperature yesterday: 61 °F

High & Low Weather Summary for the Past Weeks

 TemperatureHumidityPressure
High79 °F (Feb 23, 12:53 pm)93% (Feb 21, 6:53 am)30.25 "Hg (Feb 21, 6:53 am)
Low53 °F (Feb 22, 6:53 am)21% (Feb 23, 12:53 pm)29.96 "Hg (Feb 26, 7:53 pm)
Average61 °F75%30.07 "Hg
* Reported Feb 16 5:53 pm — Mar 2 5:53 pm, Downey. Weather by CustomWeather, © 2024

Note: Actual official high and low records may vary slightly from our data, if they occured in-between our weather recording intervals... More about our weather records

Downey Weather History for the Previous 24 Hours

Scroll right to see more
 ConditionsComfort  
Time TempWeatherWind HumidityBarometerVisibility
5:53 pm
Sat, Mar 2
59 °FMostly cloudy.7 mph78%30.02 "Hg10 mi
5:21 pm59 °FRain. Broken clouds.8 mph75%30.02 "Hg3 mi
4:53 pm62 °FBroken clouds.8 mph62%30.01 "Hg10 mi
3:53 pm64 °FBroken clouds.9 mph58%30.00 "Hg10 mi
2:53 pm64 °FCloudy.14 mph61%30.00 "Hg10 mi
1:53 pm61 °FCloudy.10 mph81%30.01 "Hg10 mi
1:32 pm61 °FLight rain. Cloudy.13 mph78%30.02 "Hg3 mi
12:53 pm65 °FBroken clouds.15 mph66%30.01 "Hg10 mi
11:53 am64 °FBroken clouds.13 mph73%30.03 "Hg10 mi
10:53 am60 °FLight rain. Cloudy.9 mph80%30.04 "Hg4 mi
10:25 am62 °FMostly cloudy.10 mph78%30.05 "Hg10 mi
10:14 am61 °FLight rain. Cloudy.10 mph75%30.04 "Hg6 mi
9:53 am63 °FMostly cloudy.9 mph73%30.04 "Hg10 mi
8:53 am61 °FLight rain. Cloudy.8 mph75%30.04 "Hg9 mi
7:53 am60 °FScattered clouds.6 mph80%30.03 "Hg10 mi
6:53 am58 °FScattered clouds.5 mph84%30.01 "Hg10 mi
6:30 am58 °FLight rain. Mostly cloudy.3 mph87%30.01 "Hg10 mi
6:01 am58 °FMostly cloudy.5 mph87%30.02 "Hg7 mi
5:13 am59 °FLight rain. Overcast.5 mph81%30.01 "Hg5 mi
4:53 am60 °FOvercast.3 mph83%30.01 "Hg10 mi
4:02 am60 °FMostly cloudy.3 mph86%30.01 "Hg10 mi
3:53 am60 °FMostly cloudy.6 mph86%30.00 "Hg10 mi
3:24 am60 °FOvercast.8 mph86%30.01 "Hg10 mi
3:12 am60 °FOvercast.7 mph86%30.02 "Hg10 mi
2:53 am60 °FLight rain. Fog.3 mph86%30.02 "Hg3 mi
2:09 am59 °FLight rain. Fog.No wind87%30.04 "Hg6 mi
1:53 am59 °FLight rain. Fog.5 mph87%30.04 "Hg5 mi
1:15 am59 °FLight rain. Fog.9 mph87%30.07 "Hg5 mi
1:00 am60 °FRain. Mostly cloudy.7 mph83%30.07 "Hg2 mi
11:53 pm
Fri, Mar 1
61 °FMostly cloudy.6 mph70%30.07 "Hg10 mi
10:53 pm61 °FMostly cloudy.7 mph72%30.08 "Hg10 mi
10:26 pm61 °FPartly cloudy.7 mph72%30.09 "Hg10 mi
10:18 pm61 °FPassing clouds.8 mph72%30.09 "Hg10 mi
9:53 pm61 °FPassing clouds.6 mph72%30.09 "Hg10 mi
9:18 pm61 °FMostly cloudy.8 mph72%30.09 "Hg10 mi
8:53 pm61 °FMostly cloudy.5 mph75%30.09 "Hg10 mi
8:35 pm61 °FMostly cloudy.7 mph72%30.09 "Hg10 mi
7:53 pm61 °FPassing clouds.5 mph70%30.09 "Hg10 mi
Weather by CustomWeather, © 2024

See weather overview